sensor_id;sensor_type;location;lat;lon;timestamp;P1;durP1;ratioP1;P2;durP2;ratioP2
22794;SDS011;11564;50.920;11.612;2022-11-15T00:00:53;10.07;;;7.23;;
22794;SDS011;11564;50.920;11.612;2022-11-15T00:03:23;11.20;;;7.60;;
22794;SDS011;11564;50.920;11.612;2022-11-15T00:05:50;8.83;;;7.27;;
22794;SDS011;11564;50.920;11.612;2022-11-15T00:08:16;6.90;;;5.53;;
22794;SDS011;11564;50.920;11.612;2022-11-15T00:10:42;8.10;;;6.50;;
22794;SDS011;11564;50.920;11.612;2022-11-15T00:13:09;5.03;;;4.63;;
22794;SDS011;11564;50.920;11.612;2022-11-15T00:15:36;8.43;;;6.43;;
22794;SDS011;11564;50.920;11.612;2022-11-15T00:18:03;5.57;;;4.97;;
22794;SDS011;11564;50.920;11.612;2022-11-15T00:20:29;5.00;;;4.63;;
22794;SDS011;11564;50.920;11.612;2022-11-15T00:22:56;9.93;;;5.83;;
22794;SDS011;11564;50.920;11.612;2022-11-15T00:25:22;6.20;;;5.60;;
22794;SDS011;11564;50.920;11.612;2022-11-15T00:27:47;7.37;;;4.87;;
22794;SDS011;11564;50.920;11.612;2022-11-15T00:30:13;6.73;;;5.07;;
22794;SDS011;11564;50.920;11.612;2022-11-15T00:32:38;5.37;;;4.97;;
22794;SDS011;11564;50.920;11.612;2022-11-15T00:35:04;5.53;;;4.60;;
22794;SDS011;11564;50.920;11.612;2022-11-15T00:37:30;6.10;;;4.70;;
22794;SDS011;11564;50.920;11.612;2022-11-15T00:39:56;8.20;;;4.03;;
22794;SDS011;11564;50.920;11.612;2022-11-15T00:42:21;4.20;;;3.57;;
22794;SDS011;11564;50.920;11.612;2022-11-15T00:44:47;5.30;;;3.70;;
22794;SDS011;11564;50.920;11.612;2022-11-15T00:47:13;3.73;;;3.53;;
22794;SDS011;11564;50.920;11.612;2022-11-15T00:49:38;7.00;;;3.67;;
22794;SDS011;11564;50.920;11.612;2022-11-15T00:52:04;6.63;;;4.87;;
22794;SDS011;11564;50.920;11.612;2022-11-15T00:54:29;3.70;;;3.43;;
22794;SDS011;11564;50.920;11.612;2022-11-15T00:56:55;4.03;;;3.63;;
22794;SDS011;11564;50.920;11.612;2022-11-15T00:59:20;4.30;;;3.90;;
22794;SDS011;11564;50.920;11.612;2022-11-15T01:01:46;4.60;;;4.07;;
22794;SDS011;11564;50.920;11.612;2022-11-15T01:04:12;5.10;;;4.10;;
22794;SDS011;11564;50.920;11.612;2022-11-15T01:06:37;4.40;;;4.00;;
22794;SDS011;11564;50.920;11.612;2022-11-15T01:09:03;4.10;;;3.70;;
22794;SDS011;11564;50.920;11.612;2022-11-15T01:11:28;5.07;;;4.13;;
22794;SDS011;11564;50.920;11.612;2022-11-15T01:13:54;4.30;;;3.90;;
22794;SDS011;11564;50.920;11.612;2022-11-15T01:16:20;8.17;;;4.20;;
22794;SDS011;11564;50.920;11.612;2022-11-15T01:18:46;5.40;;;3.90;;
22794;SDS011;11564;50.920;11.612;2022-11-15T01:21:13;4.03;;;3.60;;
22794;SDS011;11564;50.920;11.612;2022-11-15T01:23:40;4.03;;;3.63;;
22794;SDS011;11564;50.920;11.612;2022-11-15T01:26:09;5.00;;;3.70;;
22794;SDS011;11564;50.920;11.612;2022-11-15T01:28:36;4.10;;;3.80;;
22794;SDS011;11564;50.920;11.612;2022-11-15T01:31:04;4.30;;;3.90;;
22794;SDS011;11564;50.920;11.612;2022-11-15T01:33:33;4.00;;;3.43;;
22794;SDS011;11564;50.920;11.612;2022-11-15T01:36:20;4.90;;;4.03;;
22794;SDS011;11564;50.920;11.612;2022-11-15T01:38:56;4.20;;;3.90;;
22794;SDS011;11564;50.920;11.612;2022-11-15T01:41:23;4.87;;;4.10;;
22794;SDS011;11564;50.920;11.612;2022-11-15T01:43:57;4.17;;;3.77;;
22794;SDS011;11564;50.920;11.612;2022-11-15T01:47:01;8.17;;;4.57;;
22794;SDS011;11564;50.920;11.612;2022-11-15T01:49:48;5.20;;;4.60;;
22794;SDS011;11564;50.920;11.612;2022-11-15T01:52:35;4.70;;;4.00;;
22794;SDS011;11564;50.920;11.612;2022-11-15T01:55:22;4.70;;;4.17;;
22794;SDS011;11564;50.920;11.612;2022-11-15T01:57:52;5.10;;;4.10;;
22794;SDS011;11564;50.920;11.612;2022-11-15T02:00:21;6.70;;;4.97;;
22794;SDS011;11564;50.920;11.612;2022-11-15T02:02:47;7.10;;;4.13;;
22794;SDS011;11564;50.920;11.612;2022-11-15T02:05:13;5.70;;;4.33;;
22794;SDS011;11564;50.920;11.612;2022-11-15T02:07:38;4.47;;;4.07;;
22794;SDS011;11564;50.920;11.612;2022-11-15T02:10:09;3.63;;;3.17;;
22794;SDS011;11564;50.920;11.612;2022-11-15T02:12:37;4.90;;;3.90;;
22794;SDS011;11564;50.920;11.612;2022-11-15T02:15:04;4.57;;;3.80;;
22794;SDS011;11564;50.920;11.612;2022-11-15T02:25:54;5.23;;;4.20;;
22794;SDS011;11564;50.920;11.612;2022-11-15T02:31:30;4.20;;;3.37;;
22794;SDS011;11564;50.920;11.612;2022-11-15T02:39:23;5.50;;;3.77;;
22794;SDS011;11564;50.920;11.612;2022-11-15T02:42:00;6.20;;;3.90;;
22794;SDS011;11564;50.920;11.612;2022-11-15T02:44:33;4.83;;;4.37;;
22794;SDS011;11564;50.920;11.612;2022-11-15T02:47:04;5.47;;;3.43;;
22794;SDS011;11564;50.920;11.612;2022-11-15T02:49:46;4.33;;;3.77;;
22794;SDS011;11564;50.920;11.612;2022-11-15T02:52:19;5.43;;;3.80;;
22794;SDS011;11564;50.920;11.612;2022-11-15T02:54:57;4.40;;;4.00;;
22794;SDS011;11564;50.920;11.612;2022-11-15T03:00:05;5.50;;;4.13;;
22794;SDS011;11564;50.920;11.612;2022-11-15T03:05:40;3.73;;;3.50;;
22794;SDS011;11564;50.920;11.612;2022-11-15T03:09:04;4.93;;;3.73;;
22794;SDS011;11564;50.920;11.612;2022-11-15T03:11:45;4.07;;;3.77;;
22794;SDS011;11564;50.920;11.612;2022-11-15T03:19:30;9.37;;;6.87;;
22794;SDS011;11564;50.920;11.612;2022-11-15T03:22:02;8.60;;;7.40;;
22794;SDS011;11564;50.920;11.612;2022-11-15T03:24:31;7.70;;;6.90;;
22794;SDS011;11564;50.920;11.612;2022-11-15T03:26:59;9.00;;;6.70;;
22794;SDS011;11564;50.920;11.612;2022-11-15T03:29:27;7.80;;;6.90;;
22794;SDS011;11564;50.920;11.612;2022-11-15T03:31:58;11.20;;;4.43;;
22794;SDS011;11564;50.920;11.612;2022-11-15T03:37:00;3.17;;;2.87;;
22794;SDS011;11564;50.920;11.612;2022-11-15T03:39:26;7.07;;;3.80;;
22794;SDS011;11564;50.920;11.612;2022-11-15T03:47:13;5.03;;;4.30;;
22794;SDS011;11564;50.920;11.612;2022-11-15T03:49:51;8.70;;;4.40;;
22794;SDS011;11564;50.920;11.612;2022-11-15T03:52:21;4.23;;;3.83;;
22794;SDS011;11564;50.920;11.612;2022-11-15T03:54:54;6.87;;;5.00;;
22794;SDS011;11564;50.920;11.612;2022-11-15T03:57:21;7.40;;;4.80;;
22794;SDS011;11564;50.920;11.612;2022-11-15T03:59:47;4.40;;;4.00;;
22794;SDS011;11564;50.920;11.612;2022-11-15T04:02:13;5.93;;;4.20;;
22794;SDS011;11564;50.920;11.612;2022-11-15T04:04:38;5.23;;;4.27;;
22794;SDS011;11564;50.920;11.612;2022-11-15T04:07:04;4.93;;;4.47;;
22794;SDS011;11564;50.920;11.612;2022-11-15T04:09:30;3.97;;;3.67;;
22794;SDS011;11564;50.920;11.612;2022-11-15T04:11:55;10.60;;;5.13;;
22794;SDS011;11564;50.920;11.612;2022-11-15T04:14:21;7.90;;;4.30;;
22794;SDS011;11564;50.920;11.612;2022-11-15T04:16:47;5.93;;;4.23;;
22794;SDS011;11564;50.920;11.612;2022-11-15T04:19:12;6.40;;;4.47;;
22794;SDS011;11564;50.920;11.612;2022-11-15T04:21:57;5.83;;;4.00;;
22794;SDS011;11564;50.920;11.612;2022-11-15T04:24:41;4.90;;;3.77;;
22794;SDS011;11564;50.920;11.612;2022-11-15T04:27:06;4.70;;;3.73;;
22794;SDS011;11564;50.920;11.612;2022-11-15T04:29:32;4.40;;;4.10;;
22794;SDS011;11564;50.920;11.612;2022-11-15T04:32:01;5.27;;;3.70;;
22794;SDS011;11564;50.920;11.612;2022-11-15T04:34:31;3.60;;;3.40;;
22794;SDS011;11564;50.920;11.612;2022-11-15T04:36:57;7.97;;;4.90;;
22794;SDS011;11564;50.920;11.612;2022-11-15T04:39:38;6.63;;;5.97;;
22794;SDS011;11564;50.920;11.612;2022-11-15T04:42:07;6.40;;;5.80;;
22794;SDS011;11564;50.920;11.612;2022-11-15T04:44:33;7.17;;;6.57;;
22794;SDS011;11564;50.920;11.612;2022-11-15T04:46:58;10.90;;;6.23;;
22794;SDS011;11564;50.920;11.612;2022-11-15T04:49:24;7.97;;;5.70;;
22794;SDS011;11564;50.920;11.612;2022-11-15T04:51:50;6.00;;;5.47;;
22794;SDS011;11564;50.920;11.612;2022-11-15T04:54:15;4.63;;;4.30;;
22794;SDS011;11564;50.920;11.612;2022-11-15T04:56:41;3.60;;;3.30;;
22794;SDS011;11564;50.920;11.612;2022-11-15T04:59:07;4.23;;;3.83;;
22794;SDS011;11564;50.920;11.612;2022-11-15T05:01:33;4.17;;;3.13;;
22794;SDS011;11564;50.920;11.612;2022-11-15T05:03:58;10.50;;;4.90;;
22794;SDS011;11564;50.920;11.612;2022-11-15T05:06:43;7.90;;;5.07;;
22794;SDS011;11564;50.920;11.612;2022-11-15T05:09:08;5.63;;;3.70;;
22794;SDS011;11564;50.920;11.612;2022-11-15T05:11:34;6.20;;;5.30;;
22794;SDS011;11564;50.920;11.612;2022-11-15T05:14:00;6.07;;;4.53;;
22794;SDS011;11564;50.920;11.612;2022-11-15T05:16:25;7.53;;;6.10;;
22794;SDS011;11564;50.920;11.612;2022-11-15T05:18:51;8.33;;;6.43;;
22794;SDS011;11564;50.920;11.612;2022-11-15T05:21:18;9.57;;;7.57;;
22794;SDS011;11564;50.920;11.612;2022-11-15T05:23:44;9.13;;;7.00;;
22794;SDS011;11564;50.920;11.612;2022-11-15T05:26:10;11.93;;;6.90;;
22794;SDS011;11564;50.920;11.612;2022-11-15T05:28:36;6.23;;;5.63;;
22794;SDS011;11564;50.920;11.612;2022-11-15T05:31:03;8.57;;;5.77;;
22794;SDS011;11564;50.920;11.612;2022-11-15T05:33:30;4.27;;;3.87;;
22794;SDS011;11564;50.920;11.612;2022-11-15T05:36:04;4.17;;;3.87;;
22794;SDS011;11564;50.920;11.612;2022-11-15T05:38:34;7.07;;;3.70;;
22794;SDS011;11564;50.920;11.612;2022-11-15T05:41:00;4.60;;;4.20;;
22794;SDS011;11564;50.920;11.612;2022-11-15T05:43:28;11.30;;;3.87;;
22794;SDS011;11564;50.920;11.612;2022-11-15T05:45:56;4.07;;;3.67;;
22794;SDS011;11564;50.920;11.612;2022-11-15T05:48:22;4.67;;;3.83;;
22794;SDS011;11564;50.920;11.612;2022-11-15T05:50:48;4.90;;;4.20;;
22794;SDS011;11564;50.920;11.612;2022-11-15T05:53:14;3.80;;;3.50;;
22794;SDS011;11564;50.920;11.612;2022-11-15T05:55:42;8.47;;;4.03;;
22794;SDS011;11564;50.920;11.612;2022-11-15T05:58:08;4.13;;;3.53;;
22794;SDS011;11564;50.920;11.612;2022-11-15T06:00:34;5.63;;;4.00;;
22794;SDS011;11564;50.920;11.612;2022-11-15T06:02:59;3.20;;;2.90;;
22794;SDS011;11564;50.920;11.612;2022-11-15T06:05:25;3.17;;;2.87;;
22794;SDS011;11564;50.920;11.612;2022-11-15T06:07:50;4.13;;;3.73;;
22794;SDS011;11564;50.920;11.612;2022-11-15T06:10:16;5.50;;;2.87;;
22794;SDS011;11564;50.920;11.612;2022-11-15T06:12:42;3.80;;;3.20;;
22794;SDS011;11564;50.920;11.612;2022-11-15T06:15:08;4.10;;;3.80;;
22794;SDS011;11564;50.920;11.612;2022-11-15T06:17:34;3.17;;;3.00;;
22794;SDS011;11564;50.920;11.612;2022-11-15T06:19:59;5.23;;;3.13;;
22794;SDS011;11564;50.920;11.612;2022-11-15T06:22:25;3.63;;;3.33;;
22794;SDS011;11564;50.920;11.612;2022-11-15T06:24:50;5.27;;;4.53;;
22794;SDS011;11564;50.920;11.612;2022-11-15T06:27:16;3.80;;;3.47;;
22794;SDS011;11564;50.920;11.612;2022-11-15T06:29:41;5.87;;;3.40;;
22794;SDS011;11564;50.920;11.612;2022-11-15T06:32:07;4.10;;;3.33;;
22794;SDS011;11564;50.920;11.612;2022-11-15T06:34:33;3.90;;;3.50;;
22794;SDS011;11564;50.920;11.612;2022-11-15T06:37:00;4.17;;;3.77;;
22794;SDS011;11564;50.920;11.612;2022-11-15T06:39:26;4.00;;;3.60;;
22794;SDS011;11564;50.920;11.612;2022-11-15T06:41:51;5.00;;;3.40;;
22794;SDS011;11564;50.920;11.612;2022-11-15T06:44:17;8.83;;;3.53;;
22794;SDS011;11564;50.920;11.612;2022-11-15T06:46:43;7.03;;;3.63;;
22794;SDS011;11564;50.920;11.612;2022-11-15T06:49:08;4.83;;;3.60;;
22794;SDS011;11564;50.920;11.612;2022-11-15T06:51:35;3.87;;;2.70;;
22794;SDS011;11564;50.920;11.612;2022-11-15T06:54:00;3.33;;;3.00;;
22794;SDS011;11564;50.920;11.612;2022-11-15T06:56:26;4.17;;;3.10;;
22794;SDS011;11564;50.920;11.612;2022-11-15T06:58:52;7.40;;;4.50;;
22794;SDS011;11564;50.920;11.612;2022-11-15T07:01:17;9.63;;;6.00;;
22794;SDS011;11564;50.920;11.612;2022-11-15T07:03:43;12.73;;;6.00;;
22794;SDS011;11564;50.920;11.612;2022-11-15T07:06:09;10.17;;;5.60;;
22794;SDS011;11564;50.920;11.612;2022-11-15T07:08:35;8.50;;;6.57;;
22794;SDS011;11564;50.920;11.612;2022-11-15T07:11:02;11.10;;;7.10;;
22794;SDS011;11564;50.920;11.612;2022-11-15T07:13:30;18.67;;;8.07;;
22794;SDS011;11564;50.920;11.612;2022-11-15T07:16:04;11.03;;;7.70;;
22794;SDS011;11564;50.920;11.612;2022-11-15T07:18:33;10.80;;;7.17;;
22794;SDS011;11564;50.920;11.612;2022-11-15T07:21:01;16.77;;;7.43;;
22794;SDS011;11564;50.920;11.612;2022-11-15T07:23:30;11.87;;;6.93;;
22794;SDS011;11564;50.920;11.612;2022-11-15T07:25:56;12.73;;;7.33;;
22794;SDS011;11564;50.920;11.612;2022-11-15T07:28:23;20.50;;;7.93;;
22794;SDS011;11564;50.920;11.612;2022-11-15T07:30:49;17.43;;;7.47;;
22794;SDS011;11564;50.920;11.612;2022-11-15T07:33:15;10.40;;;7.10;;
22794;SDS011;11564;50.920;11.612;2022-11-15T07:35:40;8.07;;;6.83;;
22794;SDS011;11564;50.920;11.612;2022-11-15T07:38:07;10.63;;;7.37;;
22794;SDS011;11564;50.920;11.612;2022-11-15T07:40:33;10.10;;;6.60;;
22794;SDS011;11564;50.920;11.612;2022-11-15T07:42:59;9.73;;;6.60;;
22794;SDS011;11564;50.920;11.612;2022-11-15T07:45:26;7.73;;;6.50;;
22794;SDS011;11564;50.920;11.612;2022-11-15T07:47:52;6.53;;;5.00;;
22794;SDS011;11564;50.920;11.612;2022-11-15T07:50:18;11.97;;;6.90;;
22794;SDS011;11564;50.920;11.612;2022-11-15T07:52:44;9.00;;;7.03;;
22794;SDS011;11564;50.920;11.612;2022-11-15T07:55:10;11.17;;;7.83;;
22794;SDS011;11564;50.920;11.612;2022-11-15T07:57:36;15.90;;;7.63;;
22794;SDS011;11564;50.920;11.612;2022-11-15T08:00:03;11.80;;;7.40;;
22794;SDS011;11564;50.920;11.612;2022-11-15T08:02:30;12.37;;;7.70;;
22794;SDS011;11564;50.920;11.612;2022-11-15T08:04:55;11.97;;;7.60;;
22794;SDS011;11564;50.920;11.612;2022-11-15T08:07:22;13.43;;;8.60;;
22794;SDS011;11564;50.920;11.612;2022-11-15T08:09:48;11.63;;;7.63;;
22794;SDS011;11564;50.920;11.612;2022-11-15T08:12:14;13.00;;;7.27;;
22794;SDS011;11564;50.920;11.612;2022-11-15T08:14:40;11.13;;;6.83;;
22794;SDS011;11564;50.920;11.612;2022-11-15T08:17:05;9.83;;;6.90;;
22794;SDS011;11564;50.920;11.612;2022-11-15T08:19:31;11.40;;;6.10;;
22794;SDS011;11564;50.920;11.612;2022-11-15T08:21:57;10.30;;;6.50;;
22794;SDS011;11564;50.920;11.612;2022-11-15T08:24:23;9.93;;;6.80;;
22794;SDS011;11564;50.920;11.612;2022-11-15T08:26:48;8.80;;;6.60;;
22794;SDS011;11564;50.920;11.612;2022-11-15T08:29:14;13.40;;;7.57;;
22794;SDS011;11564;50.920;11.612;2022-11-15T08:31:40;13.13;;;7.90;;
22794;SDS011;11564;50.920;11.612;2022-11-15T08:34:05;11.83;;;6.70;;
22794;SDS011;11564;50.920;11.612;2022-11-15T08:36:31;12.27;;;7.60;;
22794;SDS011;11564;50.920;11.612;2022-11-15T08:38:57;8.60;;;6.47;;
22794;SDS011;11564;50.920;11.612;2022-11-15T08:41:33;10.03;;;6.47;;
22794;SDS011;11564;50.920;11.612;2022-11-15T08:44:01;15.20;;;5.73;;
22794;SDS011;11564;50.920;11.612;2022-11-15T08:46:27;6.77;;;4.87;;
22794;SDS011;11564;50.920;11.612;2022-11-15T08:48:53;6.90;;;4.83;;
22794;SDS011;11564;50.920;11.612;2022-11-15T08:51:18;4.43;;;4.07;;
22794;SDS011;11564;50.920;11.612;2022-11-15T08:53:44;5.13;;;4.27;;
22794;SDS011;11564;50.920;11.612;2022-11-15T08:56:11;4.23;;;3.73;;
22794;SDS011;11564;50.920;11.612;2022-11-15T08:58:38;3.70;;;3.40;;
22794;SDS011;11564;50.920;11.612;2022-11-15T09:01:04;2.93;;;2.73;;
22794;SDS011;11564;50.920;11.612;2022-11-15T09:03:30;3.90;;;3.20;;
22794;SDS011;11564;50.920;11.612;2022-11-15T09:05:59;8.30;;;2.97;;
22794;SDS011;11564;50.920;11.612;2022-11-15T09:08:29;5.57;;;2.20;;
22794;SDS011;11564;50.920;11.612;2022-11-15T09:10:55;2.83;;;2.63;;
22794;SDS011;11564;50.920;11.612;2022-11-15T09:13:21;2.70;;;2.50;;
22794;SDS011;11564;50.920;11.612;2022-11-15T09:15:47;2.77;;;2.57;;
22794;SDS011;11564;50.920;11.612;2022-11-15T09:18:12;2.77;;;2.57;;
22794;SDS011;11564;50.920;11.612;2022-11-15T09:20:38;4.37;;;2.70;;
22794;SDS011;11564;50.920;11.612;2022-11-15T09:23:04;2.57;;;2.37;;
22794;SDS011;11564;50.920;11.612;2022-11-15T09:25:30;2.43;;;2.30;;
22794;SDS011;11564;50.920;11.612;2022-11-15T09:27:56;2.60;;;2.17;;
22794;SDS011;11564;50.920;11.612;2022-11-15T09:30:22;5.30;;;1.80;;
22794;SDS011;11564;50.920;11.612;2022-11-15T09:32:49;3.00;;;2.80;;
22794;SDS011;11564;50.920;11.612;2022-11-15T09:35:14;2.60;;;2.50;;
22794;SDS011;11564;50.920;11.612;2022-11-15T09:37:40;2.47;;;2.10;;
22794;SDS011;11564;50.920;11.612;2022-11-15T09:40:06;2.50;;;2.30;;
22794;SDS011;11564;50.920;11.612;2022-11-15T09:42:55;3.93;;;2.13;;
22794;SDS011;11564;50.920;11.612;2022-11-15T09:56:27;2.57;;;2.17;;
22794;SDS011;11564;50.920;11.612;2022-11-15T10:04:32;2.20;;;2.10;;
22794;SDS011;11564;50.920;11.612;2022-11-15T10:09:33;3.30;;;2.07;;
22794;SDS011;11564;50.920;11.612;2022-11-15T10:12:02;2.00;;;1.90;;
22794;SDS011;11564;50.920;11.612;2022-11-15T10:14:28;2.23;;;2.03;;
22794;SDS011;11564;50.920;11.612;2022-11-15T10:19:39;2.00;;;1.90;;
22794;SDS011;11564;50.920;11.612;2022-11-15T10:27:28;1.43;;;1.33;;
22794;SDS011;11564;50.920;11.612;2022-11-15T10:29:54;3.03;;;1.70;;
22794;SDS011;11564;50.920;11.612;2022-11-15T10:32:21;3.23;;;1.90;;
22794;SDS011;11564;50.920;11.612;2022-11-15T10:34:47;2.50;;;1.70;;
22794;SDS011;11564;50.920;11.612;2022-11-15T10:37:14;1.80;;;1.70;;
22794;SDS011;11564;50.920;11.612;2022-11-15T10:40:18;1.97;;;1.70;;
22794;SDS011;11564;50.920;11.612;2022-11-15T10:42:48;2.03;;;1.83;;
22794;SDS011;11564;50.920;11.612;2022-11-15T10:45:30;2.13;;;1.80;;
22794;SDS011;11564;50.920;11.612;2022-11-15T10:50:38;1.80;;;1.70;;
22794;SDS011;11564;50.920;11.612;2022-11-15T10:56:07;1.50;;;1.40;;
22794;SDS011;11564;50.920;11.612;2022-11-15T10:58:41;3.83;;;1.97;;
22794;SDS011;11564;50.920;11.612;2022-11-15T11:01:10;1.60;;;1.50;;
22794;SDS011;11564;50.920;11.612;2022-11-15T11:03:45;2.90;;;1.50;;
22794;SDS011;11564;50.920;11.612;2022-11-15T11:06:26;1.83;;;1.73;;
22794;SDS011;11564;50.920;11.612;2022-11-15T11:08:54;2.17;;;1.97;;
22794;SDS011;11564;50.920;11.612;2022-11-15T11:11:44;1.70;;;1.60;;
22794;SDS011;11564;50.920;11.612;2022-11-15T11:17:00;1.43;;;1.33;;
22794;SDS011;11564;50.920;11.612;2022-11-15T11:22:49;1.63;;;1.53;;
22794;SDS011;11564;50.920;11.612;2022-11-15T11:28:02;2.30;;;2.10;;
22794;SDS011;11564;50.920;11.612;2022-11-15T11:33:21;2.50;;;2.30;;
22794;SDS011;11564;50.920;11.612;2022-11-15T11:35:59;2.00;;;1.90;;
22794;SDS011;11564;50.920;11.612;2022-11-15T11:47:05;2.17;;;2.07;;
22794;SDS011;11564;50.920;11.612;2022-11-15T11:49:49;2.17;;;1.97;;
22794;SDS011;11564;50.920;11.612;2022-11-15T11:52:34;8.30;;;2.20;;
22794;SDS011;11564;50.920;11.612;2022-11-15T11:55:13;1.97;;;1.80;;
22794;SDS011;11564;50.920;11.612;2022-11-15T11:58:00;2.40;;;2.20;;
22794;SDS011;11564;50.920;11.612;2022-11-15T12:00:56;5.27;;;2.63;;
22794;SDS011;11564;50.920;11.612;2022-11-15T12:06:22;2.00;;;1.90;;
22794;SDS011;11564;50.920;11.612;2022-11-15T12:09:15;2.07;;;1.90;;
22794;SDS011;11564;50.920;11.612;2022-11-15T12:11:54;3.00;;;1.80;;
22794;SDS011;11564;50.920;11.612;2022-11-15T12:16:56;2.90;;;2.53;;
22794;SDS011;11564;50.920;11.612;2022-11-15T12:19:23;9.70;;;2.03;;
22794;SDS011;11564;50.920;11.612;2022-11-15T12:21:53;2.10;;;1.90;;
22794;SDS011;11564;50.920;11.612;2022-11-15T12:24:43;1.70;;;1.50;;
22794;SDS011;11564;50.920;11.612;2022-11-15T12:29:43;1.50;;;1.40;;
22794;SDS011;11564;50.920;11.612;2022-11-15T12:32:27;2.97;;;1.53;;
22794;SDS011;11564;50.920;11.612;2022-11-15T12:34:55;1.40;;;1.30;;
22794;SDS011;11564;50.920;11.612;2022-11-15T12:42:41;1.60;;;1.50;;
22794;SDS011;11564;50.920;11.612;2022-11-15T12:45:40;2.10;;;1.73;;
22794;SDS011;11564;50.920;11.612;2022-11-15T12:56:08;4.20;;;1.70;;
22794;SDS011;11564;50.920;11.612;2022-11-15T12:58:41;2.60;;;2.00;;
22794;SDS011;11564;50.920;11.612;2022-11-15T13:04:08;2.07;;;1.83;;
22794;SDS011;11564;50.920;11.612;2022-11-15T13:06:41;2.90;;;1.73;;
22794;SDS011;11564;50.920;11.612;2022-11-15T13:15:01;2.13;;;1.87;;
22794;SDS011;11564;50.920;11.612;2022-11-15T13:17:49;5.60;;;2.03;;
22794;SDS011;11564;50.920;11.612;2022-11-15T13:23:09;2.33;;;2.13;;
22794;SDS011;11564;50.920;11.612;2022-11-15T13:30:54;1.80;;;1.30;;
22794;SDS011;11564;50.920;11.612;2022-11-15T13:33:22;2.83;;;1.93;;
22794;SDS011;11564;50.920;11.612;2022-11-15T13:35:55;2.47;;;1.20;;
22794;SDS011;11564;50.920;11.612;2022-11-15T13:38:33;3.20;;;2.00;;
22794;SDS011;11564;50.920;11.612;2022-11-15T13:41:11;2.70;;;1.80;;
22794;SDS011;11564;50.920;11.612;2022-11-15T13:43:43;1.70;;;1.60;;
22794;SDS011;11564;50.920;11.612;2022-11-15T13:48:37;3.73;;;1.90;;
22794;SDS011;11564;50.920;11.612;2022-11-15T13:51:04;2.37;;;1.17;;
22794;SDS011;11564;50.920;11.612;2022-11-15T13:53:35;18.63;;;1.63;;
22794;SDS011;11564;50.920;11.612;2022-11-15T13:56:04;3.67;;;2.00;;
22794;SDS011;11564;50.920;11.612;2022-11-15T13:58:30;4.60;;;1.40;;
22794;SDS011;11564;50.920;11.612;2022-11-15T14:01:00;2.47;;;1.50;;
22794;SDS011;11564;50.920;11.612;2022-11-15T14:03:28;1.67;;;1.57;;
22794;SDS011;11564;50.920;11.612;2022-11-15T14:06:03;2.70;;;1.70;;
22794;SDS011;11564;50.920;11.612;2022-11-15T14:08:32;2.37;;;1.40;;
22794;SDS011;11564;50.920;11.612;2022-11-15T14:11:18;10.30;;;1.83;;
22794;SDS011;11564;50.920;11.612;2022-11-15T14:14:02;2.70;;;2.47;;
22794;SDS011;11564;50.920;11.612;2022-11-15T14:16:37;3.33;;;1.93;;
22794;SDS011;11564;50.920;11.612;2022-11-15T14:19:06;4.67;;;2.63;;
22794;SDS011;11564;50.920;11.612;2022-11-15T14:24:39;3.77;;;1.60;;
22794;SDS011;11564;50.920;11.612;2022-11-15T14:30:01;1.90;;;1.80;;
22794;SDS011;11564;50.920;11.612;2022-11-15T14:32:28;3.63;;;2.17;;
22794;SDS011;11564;50.920;11.612;2022-11-15T14:35:02;2.90;;;2.70;;
22794;SDS011;11564;50.920;11.612;2022-11-15T14:37:32;5.03;;;3.10;;
22794;SDS011;11564;50.920;11.612;2022-11-15T14:40:02;3.03;;;2.60;;
22794;SDS011;11564;50.920;11.612;2022-11-15T14:42:29;4.10;;;2.53;;
22794;SDS011;11564;50.920;11.612;2022-11-15T14:44:55;4.83;;;2.17;;
22794;SDS011;11564;50.920;11.612;2022-11-15T14:47:21;8.53;;;2.20;;
22794;SDS011;11564;50.920;11.612;2022-11-15T14:50:11;4.73;;;2.07;;
22794;SDS011;11564;50.920;11.612;2022-11-15T14:52:41;3.27;;;3.07;;
22794;SDS011;11564;50.920;11.612;2022-11-15T14:55:16;2.40;;;2.20;;
22794;SDS011;11564;50.920;11.612;2022-11-15T14:57:45;5.00;;;1.90;;
22794;SDS011;11564;50.920;11.612;2022-11-15T15:00:11;5.03;;;2.23;;
22794;SDS011;11564;50.920;11.612;2022-11-15T15:02:38;7.23;;;2.40;;
22794;SDS011;11564;50.920;11.612;2022-11-15T15:05:22;5.43;;;1.97;;
22794;SDS011;11564;50.920;11.612;2022-11-15T15:07:48;5.73;;;2.57;;
22794;SDS011;11564;50.920;11.612;2022-11-15T15:10:16;4.40;;;2.37;;
22794;SDS011;11564;50.920;11.612;2022-11-15T15:12:42;2.40;;;2.20;;
22794;SDS011;11564;50.920;11.612;2022-11-15T15:15:12;3.50;;;2.87;;
22794;SDS011;11564;50.920;11.612;2022-11-15T15:17:40;4.33;;;2.73;;
22794;SDS011;11564;50.920;11.612;2022-11-15T15:20:05;3.00;;;2.70;;
22794;SDS011;11564;50.920;11.612;2022-11-15T15:22:31;2.93;;;2.70;;
22794;SDS011;11564;50.920;11.612;2022-11-15T15:24:57;3.50;;;2.10;;
22794;SDS011;11564;50.920;11.612;2022-11-15T15:27:23;4.33;;;2.20;;
22794;SDS011;11564;50.920;11.612;2022-11-15T15:29:48;3.80;;;3.47;;
22794;SDS011;11564;50.920;11.612;2022-11-15T15:32:14;4.53;;;3.43;;
22794;SDS011;11564;50.920;11.612;2022-11-15T15:34:39;5.53;;;3.97;;
22794;SDS011;11564;50.920;11.612;2022-11-15T15:37:06;5.17;;;4.27;;
22794;SDS011;11564;50.920;11.612;2022-11-15T15:39:32;6.40;;;4.63;;
22794;SDS011;11564;50.920;11.612;2022-11-15T15:41:57;6.33;;;4.50;;
22794;SDS011;11564;50.920;11.612;2022-11-15T15:44:23;5.37;;;4.87;;
22794;SDS011;11564;50.920;11.612;2022-11-15T15:46:49;15.17;;;5.50;;
22794;SDS011;11564;50.920;11.612;2022-11-15T15:49:14;6.60;;;4.80;;
22794;SDS011;11564;50.920;11.612;2022-11-15T15:51:40;8.03;;;4.90;;
22794;SDS011;11564;50.920;11.612;2022-11-15T15:54:05;12.43;;;6.03;;
22794;SDS011;11564;50.920;11.612;2022-11-15T15:56:31;11.57;;;8.43;;
22794;SDS011;11564;50.920;11.612;2022-11-15T15:58:56;22.00;;;12.40;;
22794;SDS011;11564;50.920;11.612;2022-11-15T16:01:22;17.43;;;10.20;;
22794;SDS011;11564;50.920;11.612;2022-11-15T16:03:48;15.47;;;11.63;;
22794;SDS011;11564;50.920;11.612;2022-11-15T16:06:32;18.03;;;12.60;;
22794;SDS011;11564;50.920;11.612;2022-11-15T16:09:01;12.60;;;9.37;;
22794;SDS011;11564;50.920;11.612;2022-11-15T16:11:27;13.20;;;10.07;;
22794;SDS011;11564;50.920;11.612;2022-11-15T16:13:53;11.93;;;9.00;;
22794;SDS011;11564;50.920;11.612;2022-11-15T16:16:18;13.03;;;9.67;;
22794;SDS011;11564;50.920;11.612;2022-11-15T16:18:45;12.93;;;9.40;;
22794;SDS011;11564;50.920;11.612;2022-11-15T16:21:10;12.50;;;9.30;;
22794;SDS011;11564;50.920;11.612;2022-11-15T16:23:36;14.53;;;8.80;;
22794;SDS011;11564;50.920;11.612;2022-11-15T16:26:02;11.23;;;9.20;;
22794;SDS011;11564;50.920;11.612;2022-11-15T16:28:46;14.30;;;9.80;;
22794;SDS011;11564;50.920;11.612;2022-11-15T16:31:11;10.40;;;8.90;;
22794;SDS011;11564;50.920;11.612;2022-11-15T16:33:38;14.13;;;9.47;;
22794;SDS011;11564;50.920;11.612;2022-11-15T16:36:05;20.23;;;10.60;;
22794;SDS011;11564;50.920;11.612;2022-11-15T16:38:39;15.90;;;9.83;;
22794;SDS011;11564;50.920;11.612;2022-11-15T16:41:04;21.03;;;11.57;;
22794;SDS011;11564;50.920;11.612;2022-11-15T16:43:30;12.37;;;9.73;;
22794;SDS011;11564;50.920;11.612;2022-11-15T16:45:56;11.03;;;8.30;;
22794;SDS011;11564;50.920;11.612;2022-11-15T16:48:23;10.27;;;6.60;;
22794;SDS011;11564;50.920;11.612;2022-11-15T16:50:50;7.00;;;6.30;;
22794;SDS011;11564;50.920;11.612;2022-11-15T16:53:20;7.97;;;6.43;;
22794;SDS011;11564;50.920;11.612;2022-11-15T16:55:45;9.27;;;6.93;;
22794;SDS011;11564;50.920;11.612;2022-11-15T16:58:11;6.70;;;6.00;;